createdAt,value
2019-02-06T00:07:56.902Z,-5.79
2019-02-06T00:32:11.475Z,-6.39
2019-02-06T00:48:36.339Z,-6.79
2019-02-06T00:52:36.265Z,-6.73
2019-02-06T01:10:33.844Z,-7.25
2019-02-06T01:35:06.827Z,-7.67
2019-02-06T01:37:47.426Z,-7.74
2019-02-06T01:44:46.099Z,-7.95
2019-02-06T01:46:47.880Z,-7.92
2019-02-06T01:50:27.027Z,-7.93
2019-02-06T01:59:47.355Z,-8.12
2019-02-06T02:15:48.006Z,-8.20
2019-02-06T02:18:12.377Z,-8.31
2019-02-06T03:11:54.417Z,-9.92
2019-02-06T03:43:30.818Z,-11.38
2019-02-06T04:22:48.651Z,-12.48
2019-02-06T04:26:19.470Z,-12.43
2019-02-06T04:46:13.289Z,-12.59
2019-02-06T04:49:16.568Z,-12.59
2019-02-06T04:52:54.870Z,-12.47
2019-02-06T04:56:14.833Z,-12.35
2019-02-06T05:03:29.798Z,-12.87
2019-02-06T05:19:46.241Z,-13.32
2019-02-06T05:23:01.199Z,-13.30
2019-02-06T05:29:13.257Z,-13.14
2019-02-06T05:32:06.727Z,-13.09
2019-02-06T05:41:02.999Z,-13.70
2019-02-06T05:50:42.226Z,-13.57
2019-02-06T05:53:08.813Z,-13.35
2019-02-06T05:57:20.231Z,-13.26
2019-02-06T06:08:50.203Z,-13.35
2019-02-06T06:11:35.141Z,-13.58
2019-02-06T06:14:12.096Z,-13.48
2019-02-06T06:17:03.423Z,-13.09
2019-02-06T06:19:56.727Z,-13.32
2019-02-06T06:22:47.172Z,-13.37
2019-02-06T06:25:31.231Z,-13.54
2019-02-06T06:28:07.425Z,-13.55
2019-02-06T06:30:48.083Z,-13.49
2019-02-06T06:33:27.385Z,-13.55
2019-02-06T06:36:01.594Z,-13.54
2019-02-06T06:39:01.492Z,-13.46
2019-02-06T06:44:41.256Z,-13.67
2019-02-06T06:47:20.682Z,-13.70
2019-02-06T06:50:10.287Z,-13.64
2019-02-06T06:52:43.184Z,-13.45
2019-02-06T06:55:20.423Z,-13.36
2019-02-06T06:58:00.253Z,-13.24
2019-02-06T07:00:36.730Z,-13.40
2019-02-06T07:03:14.656Z,-13.52
2019-02-06T07:06:05.478Z,-13.49
2019-02-06T07:08:37.207Z,-13.58
2019-02-06T07:11:12.613Z,-13.57
2019-02-06T07:13:53.515Z,-13.60
2019-02-06T07:16:38.365Z,-13.62
2019-02-06T07:19:18.535Z,-13.59
2019-02-06T07:21:59.566Z,-13.61
2019-02-06T07:24:36.708Z,-13.63
2019-02-06T07:27:11.158Z,-13.60
2019-02-06T07:29:44.329Z,-13.52
2019-02-06T07:32:20.065Z,-13.58
2019-02-06T07:34:56.107Z,-13.56
2019-02-06T07:37:31.617Z,-13.56
2019-02-06T07:40:07.490Z,-13.58
2019-02-06T07:42:40.556Z,-13.51
2019-02-06T07:45:12.276Z,-13.51
2019-02-06T07:47:46.002Z,-13.41
2019-02-06T07:50:29.550Z,-13.33
2019-02-06T07:53:07.924Z,-13.30
2019-02-06T07:55:41.650Z,-13.18
2019-02-06T07:58:16.290Z,-12.97
2019-02-06T08:00:51.037Z,-12.86
2019-02-06T08:03:29.552Z,-12.80
2019-02-06T08:06:05.766Z,-12.82
2019-02-06T08:08:43.881Z,-12.60
2019-02-06T08:11:16.250Z,-12.55
2019-02-06T08:13:48.092Z,-12.48
2019-02-06T08:16:27.166Z,-12.44
2019-02-06T08:19:01.805Z,-12.34
2019-02-06T08:21:38.585Z,-12.16
2019-02-06T08:24:13.719Z,-12.17
2019-02-06T08:26:52.456Z,-12.15
2019-02-06T08:29:27.023Z,-12.02
2019-02-06T08:32:05.417Z,-11.94
2019-02-06T08:34:41.444Z,-11.88
2019-02-06T08:37:14.960Z,-11.74
2019-02-06T08:39:47.215Z,-11.72
2019-02-06T08:42:31.953Z,-11.51
2019-02-06T08:45:02.438Z,-10.95
2019-02-06T08:47:36.454Z,-10.55
2019-02-06T08:50:11.895Z,-10.19
2019-02-06T08:52:53.403Z,-10.04
2019-02-06T08:55:25.008Z,-9.90
2019-02-06T08:58:05.271Z,-9.63
2019-02-06T09:00:49.917Z,-9.30
2019-02-06T09:03:22.943Z,-9.11
2019-02-06T09:09:12.785Z,-8.86
2019-02-06T09:12:13.287Z,-8.63
2019-02-06T09:14:59.107Z,-8.38
2019-02-06T09:21:53.618Z,-8.02
2019-02-06T09:24:45.838Z,-7.88
2019-02-06T09:27:14.739Z,-7.78
2019-02-06T09:29:48.761Z,-7.34
2019-02-06T09:32:31.209Z,-7.17
2019-02-06T09:35:12.951Z,-7.12
2019-02-06T09:37:52.137Z,-7.04
2019-02-06T09:40:27.310Z,-6.91
2019-02-06T09:42:58.630Z,-6.79
2019-02-06T09:45:36.499Z,-6.71
2019-02-06T09:48:26.136Z,-6.73
2019-02-06T09:51:00.296Z,-6.48
2019-02-06T09:53:34.631Z,-6.21
2019-02-06T09:56:08.535Z,-6.03
2019-02-06T09:58:52.331Z,-6.00
2019-02-06T10:01:59.468Z,-5.84
2019-02-06T10:04:41.133Z,-5.58
2019-02-06T10:07:46.686Z,-5.23
2019-02-06T10:10:40.454Z,-4.83
2019-02-06T10:13:24.438Z,-4.58
2019-02-06T10:16:00.440Z,-3.81
2019-02-06T10:18:47.852Z,-3.33
2019-02-06T10:21:30.695Z,-1.99
2019-02-06T10:24:22.047Z,-0.36
2019-02-06T10:26:58.620Z,0.76
2019-02-06T10:29:29.327Z,1.03
2019-02-06T10:32:02.082Z,1.62
2019-02-06T10:34:34.255Z,2.52
2019-02-06T10:37:12.598Z,2.83
2019-02-06T10:39:58.709Z,3.93
2019-02-06T10:42:34.315Z,3.55
2019-02-06T10:45:06.411Z,4.22
2019-02-06T10:47:39.867Z,4.80
2019-02-06T10:50:15.661Z,5.67
2019-02-06T10:52:48.325Z,6.62
2019-02-06T10:55:25.414Z,7.63
2019-02-06T10:57:57.802Z,8.81
2019-02-06T11:00:37.387Z,10.01
2019-02-06T11:03:10.281Z,10.86
2019-02-06T11:05:45.674Z,12.02
2019-02-06T11:08:18.369Z,12.83
2019-02-06T11:10:52.389Z,12.57
2019-02-06T11:13:24.068Z,13.71
2019-02-06T11:15:57.933Z,14.16
2019-02-06T11:18:32.098Z,13.43
2019-02-06T11:21:12.762Z,12.69
2019-02-06T11:23:53.426Z,11.46
2019-02-06T11:26:23.964Z,10.49
2019-02-06T11:28:56.146Z,9.50
2019-02-06T11:31:31.274Z,7.83
2019-02-06T11:34:05.919Z,7.64
2019-02-06T11:36:41.942Z,6.61
2019-02-06T11:39:23.274Z,5.90
2019-02-06T11:42:01.815Z,4.78
2019-02-06T11:44:31.511Z,4.73
2019-02-06T11:47:09.245Z,5.16
2019-02-06T11:49:47.893Z,5.26
2019-02-06T11:52:24.645Z,5.99
2019-02-06T11:55:14.820Z,5.88
2019-02-06T11:58:12.442Z,5.62
2019-02-06T12:01:19.238Z,4.95
2019-02-06T12:04:35.844Z,4.50
2019-02-06T12:07:50.632Z,3.68
2019-02-06T12:10:59.708Z,3.67
2019-02-06T12:14:03.482Z,4.00
2019-02-06T12:17:19.118Z,4.21
2019-02-06T12:20:19.765Z,3.91
2019-02-06T12:23:16.437Z,3.83
2019-02-06T12:27:06.132Z,3.28
2019-02-06T12:46:05.325Z,-1.32
2019-02-06T12:58:57.321Z,-1.97
2019-02-06T13:05:04.554Z,-2.06
2019-02-06T13:11:30.334Z,-2.38
2019-02-06T13:14:17.948Z,-2.33
2019-02-06T13:17:06.372Z,-2.45
2019-02-06T13:20:14.343Z,-2.42
2019-02-06T13:26:37.402Z,-2.77
2019-02-06T13:29:53.263Z,-2.96
2019-02-06T13:33:00.475Z,-3.08
2019-02-06T13:35:41.101Z,-3.15
2019-02-06T13:39:03.646Z,-3.29
2019-02-06T13:41:50.254Z,-3.51
2019-02-06T13:44:41.452Z,-3.54
2019-02-06T13:47:38.189Z,-3.52
2019-02-06T13:50:23.735Z,-3.65
2019-02-06T13:53:13.777Z,-3.82
2019-02-06T13:56:13.266Z,-3.91
2019-02-06T14:02:16.111Z,-4.21
2019-02-06T14:05:08.117Z,-4.21
2019-02-06T14:11:15.913Z,-4.44
2019-02-06T14:14:51.527Z,-4.64
2019-02-06T14:21:50.199Z,-4.95
2019-02-06T14:24:22.367Z,-5.20
2019-02-06T14:27:20.838Z,-5.40
2019-02-06T14:30:53.787Z,-5.62
2019-02-06T14:34:25.676Z,-5.76
2019-02-06T14:42:15.458Z,-6.18
2019-02-06T15:21:02.426Z,-7.04
2019-02-06T15:24:57.432Z,-7.24
2019-02-06T15:28:45.417Z,-7.38
2019-02-06T15:44:38.242Z,-6.96
2019-02-06T15:52:22.239Z,-7.54
2019-02-06T15:59:16.466Z,-8.01
2019-02-06T16:03:37.599Z,-7.88
2019-02-06T16:10:32.476Z,-7.85
2019-02-06T16:13:56.258Z,-7.77
2019-02-06T17:07:48.696Z,-4.86
2019-02-06T17:13:44.081Z,-4.33
2019-02-06T17:43:32.518Z,-3.46
2019-02-06T18:03:43.437Z,-3.20
2019-02-06T18:06:17.868Z,-3.02
2019-02-06T18:09:59.836Z,-2.89
2019-02-06T18:19:43.230Z,-3.16
2019-02-06T18:22:34.351Z,-2.98
2019-02-06T18:25:41.079Z,-2.82
2019-02-06T18:43:20.871Z,-2.35
2019-02-06T18:46:33.861Z,-2.31
2019-02-06T18:53:27.339Z,-2.17
2019-02-06T19:03:40.779Z,-2.13
2019-02-06T19:10:00.338Z,-2.03
2019-02-06T19:13:07.880Z,-1.92
2019-02-06T19:16:25.648Z,-1.85
2019-02-06T19:28:36.812Z,-1.68
2019-02-06T19:31:36.030Z,-1.68
2019-02-06T19:39:50.304Z,-1.66
2019-02-06T19:49:37.892Z,-1.30
2019-02-06T19:52:19.258Z,-1.20
2019-02-06T19:55:15.102Z,-1.09
2019-02-06T19:57:54.787Z,-1.10
2019-02-06T20:00:44.158Z,-1.11
2019-02-06T20:03:34.099Z,-1.06
2019-02-06T20:05:57.970Z,-1.00
2019-02-06T20:08:52.629Z,-0.97
2019-02-06T20:11:46.901Z,-0.94
2019-02-06T20:14:29.874Z,-0.85
2019-02-06T20:17:38.907Z,-0.82
2019-02-06T20:20:15.801Z,-0.90
2019-02-06T20:23:29.426Z,-0.80
2019-02-06T20:26:31.592Z,-0.82
2019-02-06T20:29:28.520Z,-0.76
2019-02-06T20:32:39.911Z,-0.69
2019-02-06T20:35:19.055Z,-0.65
2019-02-06T20:41:11.088Z,-0.49
2019-02-06T20:44:09.792Z,-0.49
2019-02-06T20:47:00.484Z,-0.52
2019-02-06T20:49:35.388Z,-0.46
2019-02-06T20:52:07.277Z,-0.40
2019-02-06T20:54:40.904Z,-0.37
2019-02-06T20:57:30.597Z,-0.36
2019-02-06T21:00:10.045Z,-0.39
2019-02-06T21:02:44.801Z,-0.43
2019-02-06T21:05:22.036Z,-0.31
2019-02-06T21:07:58.276Z,-0.31
2019-02-06T21:10:32.531Z,-0.34
2019-02-06T21:13:15.646Z,-0.20
2019-02-06T21:15:43.451Z,-0.17
2019-02-06T21:18:16.865Z,-0.17
2019-02-06T21:20:59.078Z,-0.24
2019-02-06T21:23:33.330Z,-0.22
2019-02-06T21:26:10.994Z,-0.16
2019-02-06T21:29:19.991Z,-0.11
2019-02-06T21:32:03.977Z,-0.17
2019-02-06T21:35:03.542Z,-0.11
2019-02-06T21:37:30.893Z,-0.07
2019-02-06T21:40:16.256Z,-0.09
2019-02-06T21:43:10.017Z,0.02
2019-02-06T21:45:48.380Z,0.09
2019-02-06T21:48:55.520Z,0.05
2019-02-06T21:51:42.232Z,0.03
2019-02-06T21:54:20.796Z,-0.08
2019-02-06T21:57:07.503Z,0.16
2019-02-06T21:59:54.555Z,0.12
2019-02-06T22:02:30.732Z,0.20
2019-02-06T22:05:14.256Z,0.18
2019-02-06T22:07:48.314Z,0.25
2019-02-06T22:10:27.171Z,0.30
2019-02-06T22:13:05.294Z,0.26
2019-02-06T22:15:43.099Z,0.28
2019-02-06T22:18:15.852Z,0.31
2019-02-06T22:20:52.408Z,0.27
2019-02-06T22:23:27.407Z,0.39
2019-02-06T22:29:48.935Z,0.34
2019-02-06T22:32:02.890Z,0.40
2019-02-06T22:34:43.327Z,0.45
2019-02-06T22:37:47.980Z,0.41
2019-02-06T22:40:50.831Z,0.39
2019-02-06T22:44:06.058Z,0.42
2019-02-06T22:47:04.736Z,0.36
2019-02-06T22:50:44.934Z,0.38
2019-02-06T22:53:32.328Z,0.41
2019-02-06T22:56:23.682Z,0.42
2019-02-06T22:59:41.214Z,0.47
2019-02-06T23:02:37.951Z,0.39
2019-02-06T23:05:24.177Z,0.47
2019-02-06T23:08:19.232Z,0.48
2019-02-06T23:11:20.545Z,0.41
2019-02-06T23:14:37.145Z,0.47
2019-02-06T23:17:01.957Z,0.47
2019-02-06T23:19:38.374Z,0.52
2019-02-06T23:28:24.425Z,0.55
2019-02-06T23:31:18.723Z,0.54
2019-02-06T23:34:00.212Z,0.59
2019-02-06T23:36:52.362Z,0.56
2019-02-06T23:40:01.154Z,0.61
2019-02-06T23:42:57.866Z,0.63
2019-02-06T23:45:54.631Z,0.60
2019-02-06T23:48:45.628Z,0.62
2019-02-06T23:55:26.983Z,0.63
